Time;durP1;ratioP1;P1;durP2;ratioP2;P2;SDS_P1;SDS_P2;PMS_P1;PMS_P2;Temp;Humidity;BMP_temperature;BMP_pressure;BME280_temperature;BME280_humidity;BME280_pressure;Samples;Min_cycle;Max_cycle;Signal;HPM_P1;HPM_P2
2023/05/07 00:00:40;;;;;;;74.73;69.70;;;;;;;;;;1775428;80;25618;-46
2023/05/07 00:03:08;;;;;;;76.17;70.83;;;;;;;;;;1775755;80;25574;-47
2023/05/07 00:05:34;;;;;;;69.53;65.03;;;;;;;;;;1774892;80;32714;-48
2023/05/07 00:08:00;;;;;;;71.80;66.80;;;;;;;;;;1775638;80;25558;-47
2023/05/07 00:10:26;;;;;;;33.00;30.45;;;;;;;;;;1775814;80;25578;-46
2023/05/07 00:12:52;;;;;;;12.73;5.10;;;;;;;;;;1775677;80;35204;-47
2023/05/07 00:15:18;;;;;;;7.60;5.00;;;;;;;;;;1775825;80;32197;-47
2023/05/07 00:17:43;;;;;;;9.28;6.37;;;;;;;;;;1775755;80;27499;-49
2023/05/07 00:20:11;;;;;;;8.80;5.50;;;;;;;;;;1814704;78;32697;-47
2023/05/07 00:22:37;;;;;;;81.40;75.75;;;;;;;;;;1819635;78;25600;-48
2023/05/07 00:25:06;;;;;;;79.43;74.03;;;;;;;;;;1819583;78;26501;-48
2023/05/07 00:27:32;;;;;;;56.83;52.97;;;;;;;;;;1820038;78;25541;-50
2023/05/07 00:29:58;;;;;;;79.00;73.40;;;;;;;;;;1819619;78;27594;-49
2023/05/07 00:32:24;;;;;;;78.37;73.00;;;;;;;;;;1819499;78;29935;-47
2023/05/07 00:34:50;;;;;;;77.00;71.70;;;;;;;;;;1819640;78;34690;-47
2023/05/07 00:37:16;;;;;;;78.78;73.42;;;;;;;;;;1819548;78;25564;-47
2023/05/07 00:39:42;;;;;;;78.73;73.37;;;;;;;;;;1819666;78;25416;-50
2023/05/07 00:42:08;;;;;;;74.92;69.92;;;;;;;;;;1819620;78;27642;-47
2023/05/07 00:44:34;;;;;;;77.57;72.43;;;;;;;;;;1819530;78;29869;-46
2023/05/07 00:47:03;;;;;;;74.17;69.17;;;;;;;;;;1819597;78;35210;-48
2023/05/07 00:49:41;;;;;;;56.02;52.30;;;;;;;;;;1819673;78;27731;-48
2023/05/07 00:52:11;;;;;;;54.40;50.85;;;;;;;;;;1819808;78;25516;-47
2023/05/07 00:54:37;;;;;;;;;;;;;;;;;;1822287;78;27524;-48
2023/05/07 00:57:04;;;;;;;73.87;69.07;;;;;;;;;;1819500;78;29891;-47
2023/05/07 00:59:31;;;;;;;75.80;70.70;;;;;;;;;;1819618;78;25599;-49
2023/05/07 01:01:57;;;;;;;72.40;67.77;;;;;;;;;;1819557;78;25547;-45
2023/05/07 01:04:23;;;;;;;73.50;68.63;;;;;;;;;;1819626;78;25899;-47
2023/05/07 01:06:51;;;;;;;74.40;69.67;;;;;;;;;;1819536;78;27518;-48
2023/05/07 01:09:18;;;;;;;74.70;69.77;;;;;;;;;;1819515;78;25607;-47
2023/05/07 01:11:44;;;;;;;72.73;68.07;;;;;;;;;;1819576;78;25648;-47
2023/05/07 01:14:10;;;;;;;74.30;69.40;;;;;;;;;;1785686;78;32244;-47
2023/05/07 01:16:37;;;;;;;72.33;67.70;;;;;;;;;;1819711;78;25544;-46
2023/05/07 01:19:04;;;;;;;70.43;66.07;;;;;;;;;;1806656;78;27645;-47
2023/05/07 01:21:32;;;;;;;73.37;68.50;;;;;;;;;;1718316;82;25553;-47
2023/05/07 01:23:59;;;;;;;71.12;66.77;;;;;;;;;;1744033;82;25533;-48
2023/05/07 01:26:27;;;;;;;69.03;64.80;;;;;;;;;;1727764;82;25567;-51
2023/05/07 01:28:53;;;;;;;67.80;63.50;;;;;;;;;;1730825;82;25617;-48
2023/05/07 01:31:20;;;;;;;68.33;63.93;;;;;;;;;;1730552;82;33222;-47
2023/05/07 01:33:47;;;;;;;67.50;63.40;;;;;;;;;;1728246;82;25799;-52
2023/05/07 01:36:14;;;;;;;76.92;71.82;;;;;;;;;;1728378;82;25402;-48
2023/05/07 01:38:41;;;;;;;74.90;69.95;;;;;;;;;;1729243;82;25527;-47
2023/05/07 01:41:07;;;;;;;72.90;68.10;;;;;;;;;;1743913;82;25114;-49
2023/05/07 01:43:34;;;;;;;71.63;67.03;;;;;;;;;;1728485;82;29624;-47
2023/05/07 01:46:01;;;;;;;71.13;66.43;;;;;;;;;;1729379;82;25545;-48
2023/05/07 01:48:28;;;;;;;74.13;69.17;;;;;;;;;;1731185;82;25391;-50
2023/05/07 01:50:55;;;;;;;71.10;66.50;;;;;;;;;;1730415;82;25544;-49
2023/05/07 01:53:21;;;;;;;72.20;67.70;;;;;;;;;;1730558;82;25405;-48
2023/05/07 01:55:47;;;;;;;72.53;67.77;;;;;;;;;;1744158;82;27547;-49
2023/05/07 01:58:13;;;;;;;70.43;66.03;;;;;;;;;;1729745;82;25689;-48
2023/05/07 02:00:40;;;;;;;73.70;68.93;;;;;;;;;;1729421;82;25604;-48
2023/05/07 02:03:10;;;;;;;71.13;66.53;;;;;;;;;;1729414;82;25512;-48
2023/05/07 02:05:36;;;;;;;74.17;69.47;;;;;;;;;;1743936;82;25542;-48
2023/05/07 02:08:02;;;;;;;73.77;69.07;;;;;;;;;;1729625;82;27634;-51
2023/05/07 02:10:28;;;;;;;73.43;68.83;;;;;;;;;;1729681;82;25457;-48
2023/05/07 02:12:55;;;;;;;68.53;64.07;;;;;;;;;;1730641;82;25463;-48
2023/05/07 02:15:22;;;;;;;70.00;65.30;;;;;;;;;;1730617;82;25754;-48
2023/05/07 02:18:02;;;;;;;69.93;65.50;;;;;;;;;;1730258;82;25387;-48
2023/05/07 02:20:29;;;;;;;71.10;66.57;;;;;;;;;;1745490;81;27496;-48
2023/05/07 02:22:55;;;;;;;51.27;48.03;;;;;;;;;;1751094;82;25810;-47
2023/05/07 02:25:21;;;;;;;75.23;70.33;;;;;;;;;;1751224;82;34825;-48
2023/05/07 02:27:47;;;;;;;71.97;67.57;;;;;;;;;;1751170;82;25626;-47
2023/05/07 02:30:15;;;;;;;56.03;52.07;;;;;;;;;;1751237;82;25488;-48
2023/05/07 02:32:41;;;;;;;49.50;46.07;;;;;;;;;;1751425;82;27321;-48
2023/05/07 02:35:08;;;;;;;21.20;19.43;;;;;;;;;;1751093;82;30425;-47
2023/05/07 02:37:34;;;;;;;4.55;3.62;;;;;;;;;;1772844;80;25613;-48
2023/05/07 02:40:00;;;;;;;5.80;3.75;;;;;;;;;;1819676;78;25528;-48
2023/05/07 02:42:26;;;;;;;4.05;3.10;;;;;;;;;;1819725;78;32226;-48
2023/05/07 02:44:52;;;;;;;5.05;3.80;;;;;;;;;;1819707;78;29807;-48
2023/05/07 02:47:18;;;;;;;7.28;3.70;;;;;;;;;;1819655;78;33149;-48
2023/05/07 02:49:44;;;;;;;6.22;4.30;;;;;;;;;;1819689;78;25395;-48
2023/05/07 02:52:11;;;;;;;76.40;71.42;;;;;;;;;;1819686;78;25586;-48
2023/05/07 02:54:37;;;;;;;13.90;12.75;;;;;;;;;;1819819;78;25678;-48
2023/05/07 02:57:03;;;;;;;5.47;3.77;;;;;;;;;;1819759;78;29607;-49
2023/05/07 02:59:28;;;;;;;78.30;73.10;;;;;;;;;;1819700;78;29959;-49
2023/05/07 03:01:54;;;;;;;75.30;70.40;;;;;;;;;;1819694;78;35062;-48
2023/05/07 03:04:20;;;;;;;77.23;71.83;;;;;;;;;;1819771;78;32212;-48
2023/05/07 03:06:46;;;;;;;56.58;52.60;;;;;;;;;;1819779;78;25567;-49
2023/05/07 03:09:12;;;;;;;4.87;3.60;;;;;;;;;;1819766;78;27423;-50
2023/05/07 03:11:38;;;;;;;6.00;3.80;;;;;;;;;;1819709;78;32717;-48
2023/05/07 03:14:04;;;;;;;77.50;72.30;;;;;;;;;;1819642;78;34672;-49
2023/05/07 03:16:30;;;;;;;77.90;72.80;;;;;;;;;;1819671;78;25544;-49
2023/05/07 03:18:57;;;;;;;74.42;69.67;;;;;;;;;;1819704;78;25615;-49
2023/05/07 03:21:23;;;;;;;74.27;69.33;;;;;;;;;;1819609;78;28205;-49
2023/05/07 03:23:49;;;;;;;72.70;68.00;;;;;;;;;;1819621;78;25528;-50
2023/05/07 03:26:15;;;;;;;73.73;68.93;;;;;;;;;;1819667;78;34641;-49
2023/05/07 03:28:41;;;;;;;74.43;69.67;;;;;;;;;;1819770;78;32310;-51
2023/05/07 03:31:07;;;;;;;71.47;66.83;;;;;;;;;;1819723;78;25520;-50
2023/05/07 03:33:34;;;;;;;75.03;69.97;;;;;;;;;;1819763;78;27417;-52
2023/05/07 03:36:01;;;;;;;71.90;67.30;;;;;;;;;;1819587;78;27286;-52
2023/05/07 03:38:27;;;;;;;76.90;71.85;;;;;;;;;;1819694;78;25394;-52
2023/05/07 03:40:53;;;;;;;71.77;67.27;;;;;;;;;;1819621;78;25620;-48
2023/05/07 03:43:19;;;;;;;73.10;68.60;;;;;;;;;;1819659;78;25544;-49
2023/05/07 03:45:45;;;;;;;72.70;68.13;;;;;;;;;;1819640;78;27532;-49
2023/05/07 03:48:11;;;;;;;70.60;66.10;;;;;;;;;;1819584;78;29621;-48
2023/05/07 03:50:38;;;;;;;70.03;65.60;;;;;;;;;;1819644;78;35103;-50
2023/05/07 03:53:03;;;;;;;74.87;69.97;;;;;;;;;;1819605;78;26055;-52
2023/05/07 03:55:29;;;;;;;71.57;67.17;;;;;;;;;;1819677;78;25967;-49
2023/05/07 03:57:56;;;;;;;72.30;67.70;;;;;;;;;;1819621;78;29700;-48
2023/05/07 04:00:22;;;;;;;72.43;67.73;;;;;;;;;;1819545;78;25434;-52
2023/05/07 04:02:48;;;;;;;70.70;66.27;;;;;;;;;;1819626;78;25546;-51
2023/05/07 04:05:15;;;;;;;70.33;65.93;;;;;;;;;;1819674;78;32631;-52
2023/05/07 04:07:41;;;;;;;70.67;66.27;;;;;;;;;;1819664;78;25547;-50
2023/05/07 04:10:09;;;;;;;73.63;68.90;;;;;;;;;;1819695;78;32788;-50
2023/05/07 04:12:36;;;;;;;74.40;69.70;;;;;;;;;;1819672;78;25597;-51
2023/05/07 04:15:03;;;;;;;71.13;66.50;;;;;;;;;;1819644;78;25537;-48
2023/05/07 04:17:29;;;;;;;76.90;71.70;;;;;;;;;;1819574;78;25617;-48
2023/05/07 04:19:55;;;;;;;73.10;68.40;;;;;;;;;;1813453;78;25933;-50
2023/05/07 04:22:20;;;;;;;73.30;68.33;;;;;;;;;;1787201;80;32769;-48
2023/05/07 04:24:47;;;;;;;72.60;68.00;;;;;;;;;;1787117;80;29852;-48
2023/05/07 04:27:13;;;;;;;71.07;66.73;;;;;;;;;;1787168;79;25386;-48
2023/05/07 04:29:42;;;;;;;72.80;68.03;;;;;;;;;;1787013;80;25513;-48
2023/05/07 04:32:07;;;;;;;72.67;68.23;;;;;;;;;;1786960;80;25599;-48
2023/05/07 04:34:33;;;;;;;71.47;67.00;;;;;;;;;;1787021;80;32723;-48
2023/05/07 04:36:59;;;;;;;73.63;68.73;;;;;;;;;;1786983;80;29926;-48
2023/05/07 04:39:26;;;;;;;73.07;68.57;;;;;;;;;;1787099;80;25466;-48
2023/05/07 04:41:52;;;;;;;71.03;66.60;;;;;;;;;;1787023;80;25548;-48
2023/05/07 04:44:18;;;;;;;72.30;67.50;;;;;;;;;;1787122;80;25624;-48
2023/05/07 04:46:44;;;;;;;71.30;66.80;;;;;;;;;;1787025;80;27464;-48
2023/05/07 04:49:11;;;;;;;70.97;66.33;;;;;;;;;;1786940;80;25808;-48
2023/05/07 04:51:38;;;;;;;73.37;68.77;;;;;;;;;;1787049;80;25581;-47
2023/05/07 04:54:04;;;;;;;71.50;66.90;;;;;;;;;;1787029;80;26161;-49
2023/05/07 04:56:30;;;;;;;72.23;67.73;;;;;;;;;;1787171;80;25619;-50
2023/05/07 04:58:56;;;;;;;71.13;66.53;;;;;;;;;;1787053;80;32664;-48
2023/05/07 05:01:22;;;;;;;68.40;64.23;;;;;;;;;;1786952;80;29898;-49
2023/05/07 05:03:48;;;;;;;69.70;65.37;;;;;;;;;;1787109;80;25623;-50
2023/05/07 05:06:15;;;;;;;69.37;64.77;;;;;;;;;;1787027;80;25578;-49
2023/05/07 05:08:41;;;;;;;69.43;65.23;;;;;;;;;;1787040;80;25440;-50
2023/05/07 05:11:07;;;;;;;68.90;64.47;;;;;;;;;;1787062;80;27561;-47
2023/05/07 05:13:33;;;;;;;71.33;66.93;;;;;;;;;;1786925;80;29880;-48
2023/05/07 05:16:00;;;;;;;70.97;66.67;;;;;;;;;;1787082;80;34724;-51
2023/05/07 05:18:26;;;;;;;72.17;67.27;;;;;;;;;;1787009;80;25568;-50
2023/05/07 05:20:52;;;;;;;72.70;68.10;;;;;;;;;;1782247;78;25567;-50
2023/05/07 05:23:19;;;;;;;71.37;66.90;;;;;;;;;;1775989;80;27499;-50
2023/05/07 05:25:46;;;;;;;70.07;65.63;;;;;;;;;;1775924;80;25644;-50
2023/05/07 05:28:11;;;;;;;68.93;64.53;;;;;;;;;;1776012;80;34745;-53
2023/05/07 05:30:39;;;;;;;70.83;66.33;;;;;;;;;;1775981;80;32667;-47
2023/05/07 05:33:05;;;;;;;51.77;48.53;;;;;;;;;;1776024;80;25487;-51
2023/05/07 05:35:32;;;;;;;8.63;8.13;;;;;;;;;;1775984;80;27574;-47
2023/05/07 05:37:58;;;;;;;54.50;51.10;;;;;;;;;;1775914;80;25589;-49
2023/05/07 05:40:24;;;;;;;6.50;6.20;;;;;;;;;;1776023;80;34608;-48
2023/05/07 05:42:50;;;;;;;59.17;55.47;;;;;;;;;;1775937;80;25535;-48
2023/05/07 05:45:16;;;;;;;54.43;51.13;;;;;;;;;;1775988;80;25584;-47
2023/05/07 05:47:41;;;;;;;76.03;70.90;;;;;;;;;;1775975;80;32776;-46
2023/05/07 05:50:09;;;;;;;5.20;5.00;;;;;;;;;;1775922;80;30039;-46
2023/05/07 05:52:35;;;;;;;34.33;32.30;;;;;;;;;;1776087;80;25390;-50
2023/05/07 05:55:01;;;;;;;5.80;5.58;;;;;;;;;;1776083;80;25533;-49
2023/05/07 05:57:28;;;;;;;8.97;8.50;;;;;;;;;;1776153;80;25649;-49
2023/05/07 05:59:54;;;;;;;6.57;6.27;;;;;;;;;;1776168;80;27647;-48
2023/05/07 06:02:20;;;;;;;4.87;4.67;;;;;;;;;;1776098;80;25395;-47
2023/05/07 06:04:46;;;;;;;6.30;6.00;;;;;;;;;;1776167;80;25562;-47
2023/05/07 06:07:12;;;;;;;4.87;4.67;;;;;;;;;;1776140;80;26572;-50
2023/05/07 06:09:39;;;;;;;8.27;7.87;;;;;;;;;;1776218;80;25429;-48
2023/05/07 06:12:06;;;;;;;52.30;49.17;;;;;;;;;;1776184;80;27543;-47
2023/05/07 06:14:32;;;;;;;77.80;72.83;;;;;;;;;;1776062;80;25674;-52
2023/05/07 06:16:58;;;;;;;75.00;70.17;;;;;;;;;;1776127;80;35066;-46
2023/05/07 06:19:26;;;;;;;54.57;51.20;;;;;;;;;;1776105;80;32124;-47
2023/05/07 06:21:52;;;;;;;68.87;63.75;;;;;;;;;;1776044;79;25433;-47
2023/05/07 06:24:18;;;;;;;77.87;73.07;;;;;;;;;;1775829;80;26677;-46
2023/05/07 06:26:44;;;;;;;42.90;39.53;;;;;;;;;;1775904;80;25449;-46
2023/05/07 06:29:11;;;;;;;29.98;27.50;;;;;;;;;;1775847;80;25463;-47
2023/05/07 06:31:37;;;;;;;77.95;72.95;;;;;;;;;;1775791;80;25518;-47
2023/05/07 06:34:03;;;;;;;72.92;68.25;;;;;;;;;;1775814;80;25602;-48
2023/05/07 06:36:29;;;;;;;76.47;71.57;;;;;;;;;;1775833;80;33164;-47
2023/05/07 06:38:55;;;;;;;72.03;67.17;;;;;;;;;;1775740;80;25587;-48
2023/05/07 06:41:22;;;;;;;69.87;65.57;;;;;;;;;;1775839;80;25532;-46
2023/05/07 06:43:48;;;;;;;74.30;69.70;;;;;;;;;;1775830;80;25997;-47
2023/05/07 06:46:14;;;;;;;75.90;70.97;;;;;;;;;;1775871;80;25561;-46
2023/05/07 06:48:41;;;;;;;71.30;66.40;;;;;;;;;;1775859;80;27537;-46
2023/05/07 06:51:07;;;;;;;70.77;66.40;;;;;;;;;;1775711;80;25626;-47
2023/05/07 06:53:34;;;;;;;17.37;16.40;;;;;;;;;;1775750;80;25385;-46
2023/05/07 06:56:00;;;;;;;79.77;74.47;;;;;;;;;;1775755;80;25578;-46
2023/05/07 06:58:26;;;;;;;77.07;71.87;;;;;;;;;;1775815;80;25616;-45
2023/05/07 07:00:52;;;;;;;52.53;49.20;;;;;;;;;;1775798;80;27598;-46
2023/05/07 07:03:18;;;;;;;76.60;71.67;;;;;;;;;;1775671;80;25899;-46
2023/05/07 07:05:44;;;;;;;78.37;73.07;;;;;;;;;;1775781;80;34983;-46
2023/05/07 07:08:11;;;;;;;70.93;66.43;;;;;;;;;;1775794;80;32273;-45
2023/05/07 07:10:37;;;;;;;53.13;49.73;;;;;;;;;;1775811;80;25604;-46
2023/05/07 07:13:03;;;;;;;49.90;46.73;;;;;;;;;;1775783;80;29762;-45
2023/05/07 07:15:29;;;;;;;73.53;68.77;;;;;;;;;;1775655;80;25441;-46
2023/05/07 07:17:55;;;;;;;72.03;67.43;;;;;;;;;;1775770;80;25554;-46
2023/05/07 07:20:22;;;;;;;72.00;67.63;;;;;;;;;;1775775;80;32242;-46
2023/05/07 07:22:47;;;;;;;54.37;50.90;;;;;;;;;;1817341;78;25479;-45
2023/05/07 07:25:14;;;;;;;72.57;68.10;;;;;;;;;;1819678;78;27421;-46
2023/05/07 07:27:40;;;;;;;77.57;72.17;;;;;;;;;;1819561;78;25589;-46
2023/05/07 07:30:10;;;;;;;31.63;29.70;;;;;;;;;;1819936;78;25405;-44
2023/05/07 07:32:38;;;;;;;33.58;31.50;;;;;;;;;;1819853;78;25532;-44
2023/05/07 07:35:07;;;;;;;69.47;65.17;;;;;;;;;;1819653;78;25571;-45
2023/05/07 07:37:36;;;;;;;59.13;55.50;;;;;;;;;;1819895;78;27672;-45
2023/05/07 07:40:03;;;;;;;51.68;48.48;;;;;;;;;;1819782;78;32689;-45
2023/05/07 07:42:30;;;;;;;39.47;36.93;;;;;;;;;;1819969;78;25581;-46
2023/05/07 07:44:57;;;;;;;68.57;64.27;;;;;;;;;;1819624;78;32157;-46
2023/05/07 07:47:26;;;;;;;75.83;71.07;;;;;;;;;;1819625;78;25577;-46
2023/05/07 07:49:52;;;;;;;71.67;67.20;;;;;;;;;;1819877;78;27596;-46
2023/05/07 07:52:20;;;;;;;36.00;33.80;;;;;;;;;;1819498;78;25473;-46
2023/05/07 07:54:46;;;;;;;72.43;67.93;;;;;;;;;;1819586;78;25510;-46
2023/05/07 07:57:12;;;;;;;71.97;67.00;;;;;;;;;;1819569;78;25506;-45
2023/05/07 07:59:42;;;;;;;72.33;67.73;;;;;;;;;;1819623;78;25950;-47
2023/05/07 08:02:08;;;;;;;71.07;66.60;;;;;;;;;;1819660;78;27522;-45
2023/05/07 08:04:37;;;;;;;69.60;65.33;;;;;;;;;;1819606;78;25608;-45
2023/05/07 08:07:05;;;;;;;47.05;44.23;;;;;;;;;;1819756;78;25492;-44
2023/05/07 08:09:31;;;;;;;76.77;71.42;;;;;;;;;;1819686;78;25630;-46
2023/05/07 08:11:59;;;;;;;70.20;65.80;;;;;;;;;;1819619;78;25582;-46
2023/05/07 08:14:26;;;;;;;78.00;73.10;;;;;;;;;;1819471;78;27610;-46
2023/05/07 08:16:52;;;;;;;6.40;6.10;;;;;;;;;;1819594;78;25485;-45
2023/05/07 08:19:18;;;;;;;55.43;51.93;;;;;;;;;;1819685;78;25462;-44
2023/05/07 08:21:44;;;;;;;74.63;69.67;;;;;;;;;;1819501;78;32192;-45
2023/05/07 08:24:10;;;;;;;75.87;70.73;;;;;;;;;;1819628;78;25585;-45
2023/05/07 08:26:38;;;;;;;71.33;66.73;;;;;;;;;;1819643;78;32696;-45
2023/05/07 08:29:03;;;;;;;71.10;66.50;;;;;;;;;;1819406;78;25913;-44
2023/05/07 08:31:29;;;;;;;74.43;69.83;;;;;;;;;;1819503;78;34839;-45
2023/05/07 08:33:57;;;;;;;12.47;11.65;;;;;;;;;;1818421;78;26048;-43
2023/05/07 17:19:48;;;;;;;3.85;3.17;;;;;;;40.86;0.00;125029.84;1867871;76;26917;-43
2023/05/07 17:22:15;;;;;;;4.42;2.58;;;;;;;40.91;0.00;125127.05;1824496;78;25490;-44
2023/05/07 17:24:41;;;;;;;6.97;2.47;;;;;;;40.94;0.00;125175.37;1824446;78;29678;-45
2023/05/07 17:27:07;;;;;;;2.98;2.10;;;;;;;40.97;0.00;125230.53;1824346;78;25392;-43
2023/05/07 17:29:33;;;;;;;7.45;2.95;;;;;;;40.99;0.00;125290.53;1824458;78;25515;-45
2023/05/07 17:31:59;;;;;;;4.17;2.60;;;;;;;41.02;0.00;125341.93;1824426;78;25564;-44
2023/05/07 17:34:26;;;;;;;5.42;2.70;;;;;;;41.04;0.00;125394.44;1824505;78;25441;-46
2023/05/07 17:36:53;;;;;;;4.17;2.55;;;;;;;41.07;0.00;125438.47;1824453;78;27468;-46
2023/05/07 17:39:20;;;;;;;5.87;2.65;;;;;;;41.09;0.00;125484.86;1824384;78;27269;-44
2023/05/07 17:41:46;;;;;;;5.00;2.70;;;;;;;41.11;0.00;125529.20;1824384;78;25609;-43
2023/05/07 17:44:13;;;;;;;3.85;2.80;;;;;;;41.13;0.00;125575.91;1824427;78;25452;-44
2023/05/07 17:46:39;;;;;;;3.87;2.95;;;;;;;41.15;0.00;125613.20;1824433;78;25444;-45
2023/05/07 17:49:07;;;;;;;3.95;2.90;;;;;;;41.17;0.00;125665.13;1824480;78;28150;-46
2023/05/07 17:51:34;;;;;;;3.83;2.85;;;;;;;41.19;0.00;125713.31;1824603;78;25557;-43
2023/05/07 17:54:01;;;;;;;4.92;3.70;;;;;;;41.22;0.00;125764.11;1824528;78;25529;-42
2023/05/07 17:56:27;;;;;;;5.78;3.75;;;;;;;41.23;0.00;125797.27;1824367;78;25466;-40
2023/05/07 17:58:54;;;;;;;27.90;20.52;;;;;;;41.25;0.00;125837.17;1824463;78;25380;-42
2023/05/07 18:01:21;;;;;;;29.30;22.75;;;;;;;41.27;0.00;125871.66;1824534;78;27652;-43
2023/05/07 18:03:48;;;;;;;7.97;6.17;;;;;;;41.28;0.00;125902.48;1824498;78;25526;-43
2023/05/07 18:06:17;;;;;;;20.23;16.07;;;;;;;41.30;0.00;125948.47;1824452;78;25434;-43
2023/05/07 18:08:45;;;;;;;4.35;3.90;;;;;;;41.32;0.00;125980.39;1824380;78;25957;-42
2023/05/07 18:11:13;;;;;;;4.72;3.85;;;;;;;41.33;0.00;126016.59;1823987;77;25378;-42
2023/05/07 18:13:39;;;;;;;5.00;3.37;;;;;;;41.35;0.00;126048.73;1824565;78;28126;-42
2023/05/07 18:16:06;;;;;;;3.55;3.05;;;;;;;41.36;0.00;126084.16;1824463;78;25516;-40
2023/05/07 18:18:34;;;;;;;5.92;3.22;;;;;;;41.38;0.00;126122.89;1824410;77;25553;-44
2023/05/07 18:21:01;;;;;;;5.75;2.87;;;;;;;41.39;0.00;126145.31;1824372;78;25506;-43
2023/05/07 18:23:28;;;;;;;6.97;3.02;;;;;;;41.40;0.00;126175.28;1824450;78;25537;-47
2023/05/07 18:25:54;;;;;;;4.78;3.10;;;;;;;41.41;0.00;126201.59;1824438;78;27473;-48
2023/05/07 18:28:21;;;;;;;4.10;2.75;;;;;;;41.43;0.00;126237.46;1824365;78;25548;-47
2023/05/07 18:30:47;;;;;;;4.58;3.00;;;;;;;41.45;0.00;126269.20;1823928;78;25379;-50
2023/05/07 18:33:13;;;;;;;4.95;2.98;;;;;;;41.46;0.00;126302.70;1823786;78;27368;-47
2023/05/07 18:35:39;;;;;;;5.10;3.02;;;;;;;41.48;0.00;126338.58;1823840;78;25440;-45
2023/05/07 18:38:05;;;;;;;6.62;3.80;;;;;;;41.49;0.00;126365.78;1823813;78;29763;-47
2023/05/07 18:40:32;;;;;;;5.42;3.60;;;;;;;41.50;0.00;126394.87;1823768;78;25601;-45
2023/05/07 18:43:05;;;;;;;6.33;3.75;;;;;;;41.52;0.00;126427.01;1823748;78;25411;-46
2023/05/07 18:45:26;;;;;;;7.45;3.52;;;;;;;41.53;0.00;126465.29;1822918;78;25614;-44
2023/05/07 18:47:52;;;;;;;7.15;3.70;;;;;;;41.55;0.00;126495.26;1823972;78;25408;-46
2023/05/07 18:50:19;;;;;;;4.60;3.37;;;;;;;41.57;0.00;126532.27;1823925;78;28459;-48
2023/05/07 18:52:46;;;;;;;4.92;3.70;;;;;;;41.58;0.00;126563.42;1823787;78;25589;-45
2023/05/07 18:55:13;;;;;;;7.47;3.80;;;;;;;41.59;0.00;126593.17;1823835;78;25427;-45
2023/05/07 18:57:40;;;;;;;6.30;3.77;;;;;;;41.60;0.00;126615.45;1823798;78;25803;-46
2023/05/07 19:00:10;;;;;;;8.95;4.17;;;;;;;41.62;0.00;126640.09;1823890;78;25572;-47
2023/05/07 19:02:38;;;;;;;6.90;4.35;;;;;;;41.63;0.00;126667.60;1823838;78;27444;-46
2023/05/07 19:05:06;;;;;;;5.65;4.22;;;;;;;41.64;0.00;126683.95;1823750;78;25376;-46
2023/05/07 19:07:33;;;;;;;5.08;3.90;;;;;;;41.65;0.00;126723.22;1823931;78;25439;-48
2023/05/07 19:09:59;;;;;;;8.20;3.60;;;;;;;41.66;0.00;126745.89;1823773;78;34690;-48
2023/05/07 19:12:25;;;;;;;9.80;3.95;;;;;;;41.67;0.00;126772.54;1823796;78;25460;-44
2023/05/07 19:14:53;;;;;;;4.35;3.50;;;;;;;41.68;0.00;126794.11;1823916;78;27577;-46
2023/05/07 19:17:21;;;;;;;5.53;4.05;;;;;;;41.69;0.00;126811.75;1823765;78;26290;-48
2023/05/07 19:19:48;;;;;;;8.65;4.42;;;;;;;41.70;0.00;126835.43;1823928;77;25527;-45
2023/05/07 19:22:15;;;;;;;11.00;4.40;;;;;;;41.71;0.00;126857.69;1823849;78;26191;-47
2023/05/07 19:24:42;;;;;;;6.47;4.10;;;;;;;41.72;0.00;126878.77;1823932;78;25606;-46
2023/05/07 19:27:09;;;;;;;7.33;4.37;;;;;;;41.73;0.00;126900.27;1823897;78;27497;-45
2023/05/07 19:29:35;;;;;;;8.80;4.90;;;;;;;41.74;0.00;126916.50;1823766;78;25605;-47
2023/05/07 19:32:04;;;;;;;6.05;4.62;;;;;;;41.75;0.00;126946.39;1823003;78;25657;-45
2023/05/07 19:34:30;;;;;;;5.20;4.30;;;;;;;41.76;0.00;126977.40;1823716;78;25529;-46
2023/05/07 19:36:57;;;;;;;6.55;4.35;;;;;;;41.77;0.00;126995.63;1823769;78;25360;-47
2023/05/07 19:39:24;;;;;;;5.22;4.20;;;;;;;41.78;0.00;127024.31;1823816;78;27444;-45
2023/05/07 19:41:50;;;;;;;7.15;4.47;;;;;;;41.79;0.00;127046.48;1823552;78;25417;-47
2023/05/07 19:44:17;;;;;;;9.03;4.10;;;;;;;41.80;0.00;127073.30;1823757;78;25546;-46
2023/05/07 19:46:46;;;;;;;14.03;6.05;;;;;;;41.81;0.00;127098.31;1823658;78;25356;-45
2023/05/07 19:49:13;;;;;;;6.20;4.40;;;;;;;41.83;0.00;127121.30;1823976;78;25646;-48
2023/05/07 19:51:40;;;;;;;5.97;5.08;;;;;;;41.84;0.00;127155.34;1823689;78;27516;-54
2023/05/07 19:54:06;;;;;;;7.85;4.75;;;;;;;41.85;0.00;127175.19;1823651;78;25592;-47
2023/05/07 19:56:34;;;;;;;9.78;5.20;;;;;;;41.86;0.00;127195.39;1823670;78;25404;-47
2023/05/07 19:59:02;;;;;;;6.70;4.90;;;;;;;41.87;0.00;127221.98;1823694;78;25467;-47
2023/05/07 20:01:30;;;;;;;10.00;5.42;;;;;;;41.88;0.00;127253.87;1823775;78;25498;-48
2023/05/07 20:03:59;;;;;;;11.20;6.70;;;;;;;41.89;0.00;127271.80;1824012;78;27495;-49
2023/05/07 20:06:27;;;;;;;9.57;6.30;;;;;;;41.90;0.00;127304.58;1823883;78;25799;-47
2023/05/07 20:08:53;;;;;;;10.93;7.55;;;;;;;41.91;0.00;127326.53;1823747;77;25525;-49
2023/05/07 20:11:21;;;;;;;9.35;6.17;;;;;;;41.92;0.00;127346.53;1823783;78;25498;-47
2023/05/07 20:13:47;;;;;;;12.60;6.60;;;;;;;41.93;0.00;127370.49;1823800;78;25391;-46
2023/05/07 20:16:14;;;;;;;11.22;6.78;;;;;;;41.94;0.00;127391.02;1823779;78;27492;-51
2023/05/07 20:18:41;;;;;;;11.80;6.83;;;;;;;41.95;0.00;127408.41;1824374;77;26174;-49
2023/05/07 20:21:07;;;;;;;12.23;7.17;;;;;;;41.96;0.00;127428.64;1829967;77;25582;-46
2023/05/07 20:23:34;;;;;;;11.18;6.80;;;;;;;41.96;0.00;127446.66;1829764;78;25199;-47
2023/05/07 20:26:01;;;;;;;12.78;7.53;;;;;;;41.97;0.00;127468.39;1829879;78;25402;-49
2023/05/07 20:28:28;;;;;;;11.50;7.20;;;;;;;41.98;0.00;127485.77;1829847;78;28222;-47
2023/05/07 20:30:55;;;;;;;13.62;7.72;;;;;;;41.99;0.00;127502.34;1829733;77;25863;-48
2023/05/07 20:33:22;;;;;;;9.33;6.58;;;;;;;41.99;0.00;127516.38;1829867;77;25554;-46
2023/05/07 20:35:48;;;;;;;25.92;16.80;;;;;;;42.00;0.00;127536.61;1829797;78;25562;-47
2023/05/07 20:38:15;;;;;;;27.95;19.82;;;;;;;42.01;0.00;127542.63;1829750;78;25525;-45
2023/05/07 20:40:41;;;;;;;14.50;8.85;;;;;;;42.01;0.00;127550.31;1829790;78;27476;-45
2023/05/07 20:43:08;;;;;;;13.70;8.30;;;;;;;42.02;0.00;127568.08;1829687;78;25871;-48
2023/05/07 20:45:35;;;;;;;15.38;9.78;;;;;;;42.03;0.00;127590.95;1829758;78;25483;-48
2023/05/07 20:48:02;;;;;;;19.60;11.70;;;;;;;42.03;0.00;127609.58;1829792;77;25392;-47
2023/05/07 20:50:29;;;;;;;17.30;11.73;;;;;;;42.04;0.00;127623.27;1829874;78;25535;-46
2023/05/07 20:52:57;;;;;;;16.50;9.55;;;;;;;42.04;0.00;127632.69;1829828;78;27463;-46
2023/05/07 20:55:23;;;;;;;13.78;8.70;;;;;;;42.05;0.00;127653.57;1829727;77;25531;-45
2023/05/07 20:57:50;;;;;;;12.70;8.38;;;;;;;42.06;0.00;127669.61;1829805;78;25338;-47
2023/05/07 21:00:18;;;;;;;14.25;8.58;;;;;;;42.07;0.00;127685.03;1829736;78;25789;-45
2023/05/07 21:02:45;;;;;;;88.70;81.60;;;;;;;42.07;0.00;127694.45;1829726;78;25584;-45
2023/05/07 21:05:13;;;;;;;85.55;79.22;;;;;;;42.08;0.00;127720.23;1829890;77;28451;-44
2023/05/07 21:07:40;;;;;;;85.40;79.00;;;;;;;42.09;0.00;127740.60;1829689;77;25459;-47
2023/05/07 21:10:09;;;;;;;83.17;76.87;;;;;;;42.10;0.00;127757.14;1829728;77;25448;-47
2023/05/07 21:12:36;;;;;;;83.72;77.58;;;;;;;42.10;0.00;127772.29;1829881;78;25405;-45
2023/05/07 21:15:05;;;;;;;86.25;79.75;;;;;;;42.11;0.00;127797.55;1829780;78;25369;-46
2023/05/07 21:17:33;;;;;;;56.18;52.13;;;;;;;42.12;0.00;127812.45;1829999;78;27569;-47
2023/05/07 21:19:59;;;;;;;82.02;76.02;;;;;;;42.13;0.00;127832.77;1825990;77;25423;-46
2023/05/07 21:22:25;;;;;;;86.00;79.47;;;;;;;42.14;0.00;127850.28;1823727;78;25562;-46
2023/05/07 21:24:52;;;;;;;83.58;77.25;;;;;;;42.15;0.00;127875.80;1823591;78;25524;-47
2023/05/07 21:27:19;;;;;;;84.97;78.62;;;;;;;42.15;0.00;127887.24;1823619;78;25488;-47
2023/05/07 21:29:45;;;;;;;88.17;81.17;;;;;;;42.16;0.00;127907.64;1823637;78;27645;-46
2023/05/07 21:32:11;;;;;;;81.80;75.52;;;;;;;42.17;0.00;127925.69;1823600;78;25244;-45
2023/05/07 21:34:37;;;;;;;16.45;10.93;;;;;;;42.17;0.00;127939.58;1823735;78;25173;-46
2023/05/07 21:37:04;;;;;;;16.87;10.68;;;;;;;42.17;0.00;127942.45;1823705;78;25509;-46
2023/05/07 21:39:30;;;;;;;19.67;11.33;;;;;;;42.17;0.00;127947.30;1823684;78;25674;-47
2023/05/07 21:41:56;;;;;;;17.10;11.78;;;;;;;42.18;0.00;127966.23;1823639;78;27476;-47
2023/05/07 21:44:22;;;;;;;17.73;12.35;;;;;;;42.19;0.00;127985.50;1823583;78;32725;-45
2023/05/07 21:46:48;;;;;;;19.98;12.95;;;;;;;42.19;0.00;127992.63;1823753;78;25779;-46
2023/05/07 21:49:14;;;;;;;22.55;14.43;;;;;;;42.19;0.00;128004.70;1823705;78;25518;-49
2023/05/07 21:51:41;;;;;;;23.75;16.25;;;;;;;42.20;0.00;128019.33;1823795;78;32293;-47